Time;durP1;ratioP1;P1;durP2;ratioP2;P2;SDS_P1;SDS_P2;PMS_P1;PMS_P2;Temp;Humidity;BMP_temperature;BMP_pressure;BME280_temperature;BME280_humidity;BME280_pressure;Samples;Min_cycle;Max_cycle;Signal;HPM_P1;HPM_P2
2022/01/30 00:00:50;;;;;;;7.67;5.07;;;1.90;99.90;;;;;;5029564;28;20461;-70
2022/01/30 00:03:17;;;;;;;6.97;4.10;;;1.90;99.90;;;;;;5029707;28;20525;-70
2022/01/30 00:05:44;;;;;;;9.30;5.40;;;1.90;99.90;;;;;;5028933;28;20480;-70
2022/01/30 00:08:11;;;;;;;8.67;5.50;;;1.90;99.90;;;;;;5031540;28;20461;-70
2022/01/30 00:10:40;;;;;;;8.60;5.00;;;1.90;99.90;;;;;;5033471;28;20449;-71
2022/01/30 00:13:11;;;;;;;7.37;4.90;;;2.00;99.90;;;;;;5033397;28;20442;-72
2022/01/30 00:15:42;;;;;;;6.47;4.53;;;2.00;99.90;;;;;;5032955;28;20517;-71
2022/01/30 00:18:31;;;;;;;9.57;5.40;;;2.00;99.90;;;;;;5033255;28;20484;-70
2022/01/30 00:23:46;;;;;;;9.93;5.10;;;2.00;99.90;;;;;;5033272;28;20791;-71
2022/01/30 00:26:15;;;;;;;8.57;5.13;;;2.10;99.90;;;;;;5032750;28;20516;-70
2022/01/30 00:28:42;;;;;;;10.67;6.33;;;2.10;99.90;;;;;;5032937;28;20456;-72
2022/01/30 00:31:10;;;;;;;10.77;6.00;;;1.80;99.90;;;;;;5033012;28;20948;-71
2022/01/30 00:33:38;;;;;;;9.57;5.57;;;1.70;99.90;;;;;;5032908;28;20456;-71
2022/01/30 00:36:06;;;;;;;11.30;5.97;;;1.50;99.90;;;;;;5032382;28;20520;-70
2022/01/30 00:38:34;;;;;;;10.67;6.37;;;1.60;99.90;;;;;;5032644;28;20564;-71
2022/01/30 00:41:01;;;;;;;12.43;5.40;;;1.80;99.90;;;;;;5032874;28;20451;-72
2022/01/30 00:43:28;;;;;;;11.50;6.03;;;1.50;99.90;;;;;;5032646;28;20932;-72
2022/01/30 00:45:55;;;;;;;12.07;6.23;;;1.60;99.90;;;;;;5032587;28;20473;-71
2022/01/30 00:48:23;;;;;;;9.83;6.50;;;1.50;99.90;;;;;;5032401;28;20794;-70
2022/01/30 00:50:51;;;;;;;8.87;5.63;;;1.50;99.90;;;;;;5032485;28;20472;-70
2022/01/30 00:53:18;;;;;;;9.93;6.20;;;1.70;99.90;;;;;;5032275;28;20463;-72
2022/01/30 00:55:46;;;;;;;8.97;6.40;;;1.70;99.90;;;;;;5032480;28;20475;-70
2022/01/30 00:58:13;;;;;;;10.93;6.03;;;1.70;99.90;;;;;;5032351;28;21009;-71
2022/01/30 01:00:41;;;;;;;10.03;6.57;;;1.60;99.90;;;;;;5032592;28;20458;-71
2022/01/30 01:03:09;;;;;;;18.37;6.23;;;1.60;99.90;;;;;;5032479;28;20456;-71
2022/01/30 01:05:37;;;;;;;14.77;6.80;;;1.70;99.90;;;;;;5032104;28;20481;-70
2022/01/30 01:08:13;;;;;;;8.83;6.00;;;1.80;99.90;;;;;;5032179;28;20464;-72
2022/01/30 01:10:45;;;;;;;11.67;5.80;;;1.90;99.90;;;;;;5032292;28;20491;-70
2022/01/30 01:13:37;;;;;;;10.93;6.77;;;1.90;99.90;;;;;;5032212;28;20456;-70
2022/01/30 01:24:19;;;;;;;22.87;12.77;;;1.70;99.90;;;;;;5032015;28;20437;-71
2022/01/30 01:26:46;;;;;;;20.70;13.63;;;1.80;99.90;;;;;;5031806;28;20462;-71
2022/01/30 01:29:15;;;;;;;22.67;13.83;;;1.80;99.90;;;;;;5031810;28;20472;-72
2022/01/30 01:31:42;;;;;;;19.30;12.67;;;1.80;99.90;;;;;;5031913;28;20474;-70
2022/01/30 01:34:30;;;;;;;19.90;13.50;;;1.80;99.90;;;;;;5031864;28;20449;-71
2022/01/30 01:36:57;;;;;;;17.10;12.43;;;1.80;99.90;;;;;;5031151;28;20493;-72
2022/01/30 01:39:25;;;;;;;22.00;14.67;;;1.70;99.90;;;;;;5031742;28;20455;-70
2022/01/30 01:41:53;;;;;;;25.23;14.60;;;1.80;99.90;;;;;;5031169;28;20464;-70
2022/01/30 01:44:29;;;;;;;20.63;13.27;;;1.60;99.90;;;;;;5031652;28;20463;-71
2022/01/30 01:46:56;;;;;;;19.87;12.97;;;1.70;99.90;;;;;;5031011;28;20463;-72
2022/01/30 01:49:28;;;;;;;16.97;12.33;;;1.70;99.90;;;;;;5031386;28;20477;-72
2022/01/30 01:54:39;;;;;;;18.53;11.70;;;1.70;99.90;;;;;;5022401;28;20435;-71
2022/01/30 01:57:07;;;;;;;22.47;11.67;;;1.70;99.90;;;;;;5031215;28;20497;-71
2022/01/30 01:59:34;;;;;;;19.03;11.33;;;1.70;99.90;;;;;;5031231;28;20454;-69
2022/01/30 02:02:02;;;;;;;15.03;11.07;;;1.70;99.90;;;;;;5030846;28;20443;-71
2022/01/30 02:04:29;;;;;;;17.17;11.57;;;1.50;99.90;;;;;;5031010;28;20521;-68
2022/01/30 02:07:12;;;;;;;20.47;11.67;;;1.50;99.90;;;;;;5031166;28;20471;-71
2022/01/30 02:09:41;;;;;;;18.40;11.60;;;1.40;99.90;;;;;;5031184;28;20461;-69
2022/01/30 02:12:16;;;;;;;15.40;10.47;;;1.30;99.90;;;;;;5030918;28;20464;-72
2022/01/30 02:14:49;;;;;;;13.43;9.37;;;1.10;99.90;;;;;;5031032;28;20461;-73
2022/01/30 02:25:46;;;;;;;14.23;8.90;;;1.20;99.90;;;;;;5030744;28;20463;-72
2022/01/30 02:28:18;;;;;;;19.90;10.43;;;1.10;99.90;;;;;;5030744;28;20458;-72
2022/01/30 02:30:52;;;;;;;14.33;8.83;;;1.10;99.90;;;;;;5029416;28;20967;-71
2022/01/30 02:33:22;;;;;;;12.00;9.33;;;1.00;99.90;;;;;;5028996;28;20511;-71
2022/01/30 02:35:49;;;;;;;14.63;9.40;;;0.90;99.90;;;;;;5030573;28;20507;-72
2022/01/30 02:38:19;;;;;;;13.50;9.53;;;0.90;99.90;;;;;;5030536;28;20993;-72
2022/01/30 02:40:49;;;;;;;15.40;9.33;;;0.90;99.90;;;;;;5030683;28;20450;-70
2022/01/30 02:43:20;;;;;;;14.87;8.30;;;0.80;99.90;;;;;;5029943;28;20493;-69
2022/01/30 02:45:58;;;;;;;13.73;9.10;;;0.90;99.90;;;;;;5030326;28;20825;-72
2022/01/30 02:48:32;;;;;;;12.77;8.30;;;1.00;99.90;;;;;;5030296;28;20467;-71
2022/01/30 02:51:10;;;;;;;19.10;9.17;;;1.00;99.90;;;;;;5030215;28;20457;-71
2022/01/30 02:53:42;;;;;;;15.83;8.80;;;1.00;99.90;;;;;;5030283;28;20838;-71
2022/01/30 02:56:10;;;;;;;15.90;9.67;;;0.90;99.90;;;;;;5030143;28;20458;-69
2022/01/30 02:58:37;;;;;;;16.20;9.73;;;1.00;99.90;;;;;;5029860;28;20890;-70
2022/01/30 03:01:04;;;;;;;17.00;10.30;;;1.40;99.90;;;;;;5030214;28;20514;-72
2022/01/30 03:03:31;;;;;;;17.43;9.63;;;1.10;99.90;;;;;;5030184;28;20500;-70
2022/01/30 03:05:58;;;;;;;16.50;9.80;;;1.10;99.90;;;;;;5029610;28;20469;-71
2022/01/30 03:08:25;;;;;;;16.07;9.40;;;1.10;99.90;;;;;;5029691;28;20928;-71
2022/01/30 03:10:54;;;;;;;13.83;9.53;;;1.10;99.90;;;;;;5029629;28;20455;-72
2022/01/30 03:13:21;;;;;;;18.30;10.90;;;1.00;99.90;;;;;;5029880;28;20956;-71
2022/01/30 03:15:48;;;;;;;13.53;8.20;;;0.90;99.90;;;;;;5030072;28;20519;-70
2022/01/30 03:18:15;;;;;;;12.67;10.00;;;1.00;99.90;;;;;;5029907;28;20551;-73
2022/01/30 03:20:42;;;;;;;15.90;9.17;;;1.00;99.90;;;;;;5029979;28;20458;-72
2022/01/30 03:23:09;;;;;;;16.60;9.17;;;1.00;99.90;;;;;;5029725;28;20503;-71
2022/01/30 03:25:36;;;;;;;13.87;7.80;;;0.90;99.90;;;;;;5029677;28;20834;-71
2022/01/30 03:28:05;;;;;;;17.03;8.13;;;1.10;99.90;;;;;;5029711;28;20451;-70
2022/01/30 03:30:33;;;;;;;14.10;8.77;;;1.10;99.90;;;;;;5029792;28;20453;-71
2022/01/30 03:33:00;;;;;;;15.20;9.13;;;0.90;99.90;;;;;;5030009;28;20462;-71
2022/01/30 03:35:27;;;;;;;14.07;9.40;;;1.00;99.90;;;;;;5029545;28;20478;-72
2022/01/30 03:37:55;;;;;;;13.00;8.53;;;0.80;99.90;;;;;;5029603;28;20582;-70
2022/01/30 03:40:22;;;;;;;17.90;8.27;;;0.70;99.90;;;;;;5029591;28;20821;-71
2022/01/30 03:42:49;;;;;;;16.77;9.33;;;0.80;99.90;;;;;;5032962;28;20517;-72
2022/01/30 03:45:17;;;;;;;13.03;8.67;;;0.80;99.90;;;;;;5033754;28;20536;-72
2022/01/30 03:47:44;;;;;;;13.77;8.47;;;0.70;99.90;;;;;;5033601;28;20452;-70
2022/01/30 03:50:11;;;;;;;15.50;9.13;;;0.60;99.90;;;;;;5033063;28;20867;-71
2022/01/30 03:52:38;;;;;;;13.60;9.20;;;0.60;99.90;;;;;;5033333;28;20950;-71
2022/01/30 03:55:06;;;;;;;14.00;8.90;;;0.70;99.90;;;;;;5033030;28;20999;-71
2022/01/30 03:57:33;;;;;;;14.73;8.03;;;0.70;99.90;;;;;;5033430;28;20594;-70
2022/01/30 04:00:00;;;;;;;13.90;9.00;;;0.70;99.90;;;;;;5033753;28;20840;-71
2022/01/30 04:02:29;;;;;;;14.00;9.43;;;0.80;99.90;;;;;;5033525;28;20509;-72
2022/01/30 04:04:56;;;;;;;14.50;10.73;;;0.80;99.90;;;;;;5033487;28;20849;-71
2022/01/30 04:07:24;;;;;;;15.87;9.80;;;0.80;99.90;;;;;;5033262;28;20497;-71
2022/01/30 04:09:51;;;;;;;14.43;9.67;;;0.90;99.90;;;;;;5033093;28;20944;-73
2022/01/30 04:12:19;;;;;;;18.20;11.17;;;1.00;99.90;;;;;;5033232;28;20519;-72
2022/01/30 04:14:46;;;;;;;19.57;11.67;;;1.00;99.90;;;;;;5033424;28;20471;-72
2022/01/30 04:17:14;;;;;;;15.67;10.90;;;0.90;99.90;;;;;;5032919;28;20486;-71
2022/01/30 04:19:42;;;;;;;15.73;10.27;;;0.90;99.90;;;;;;5033230;28;20578;-72
2022/01/30 04:22:09;;;;;;;18.03;10.10;;;0.80;99.90;;;;;;5032985;28;20459;-71
2022/01/30 04:24:36;;;;;;;17.80;10.30;;;0.80;99.90;;;;;;5032852;28;20474;-72
2022/01/30 04:27:04;;;;;;;14.97;11.07;;;0.80;99.90;;;;;;5033082;28;20459;-72
2022/01/30 04:29:32;;;;;;;24.47;10.90;;;0.80;99.90;;;;;;5033051;28;20449;-70
2022/01/30 04:31:59;;;;;;;13.20;8.80;;;0.70;99.90;;;;;;5032858;28;20456;-72
2022/01/30 04:34:28;;;;;;;15.23;9.10;;;0.60;99.90;;;;;;5032247;28;20482;-72
2022/01/30 04:37:02;;;;;;;14.07;8.77;;;0.60;99.90;;;;;;5032406;28;20584;-72
2022/01/30 04:39:50;;;;;;;18.80;10.70;;;0.60;99.90;;;;;;5032810;28;20448;-71
2022/01/30 04:51:57;;;;;;;14.27;9.00;;;0.70;99.90;;;;;;5032495;28;20490;-71
2022/01/30 04:53:38;;;;;;;13.23;9.00;;;0.60;99.90;;;;;;5031463;28;20434;-71
2022/01/30 04:59:06;;;;;;;13.40;8.53;;;0.80;99.90;;;;;;5028328;28;20985;-71
2022/01/30 05:01:50;;;;;;;12.80;9.13;;;0.90;99.90;;;;;;5032279;28;20486;-71
2022/01/30 05:04:24;;;;;;;12.70;8.40;;;0.70;99.90;;;;;;5032268;28;20536;-73
2022/01/30 05:07:27;;;;;;;13.23;8.27;;;0.80;99.90;;;;;;5032344;28;20556;-73
2022/01/30 05:09:45;;;;;;;17.23;10.30;;;0.80;99.90;;;;;;5031900;28;20462;-71
2022/01/30 05:12:15;;;;;;;13.93;7.80;;;1.00;99.90;;;;;;5032153;28;20455;-73
2022/01/30 05:14:42;;;;;;;14.53;8.80;;;1.10;99.90;;;;;;5031938;28;21048;-71
2022/01/30 05:17:10;;;;;;;16.63;9.03;;;1.00;99.90;;;;;;5031779;28;20541;-74
2022/01/30 05:19:37;;;;;;;17.23;8.67;;;0.60;99.90;;;;;;5031640;28;20940;-71
2022/01/30 05:22:06;;;;;;;18.57;9.63;;;0.70;99.90;;;;;;5031773;28;20455;-72
2022/01/30 05:24:34;;;;;;;13.80;8.87;;;0.80;99.90;;;;;;5031873;28;20561;-73
2022/01/30 05:27:03;;;;;;;13.43;9.37;;;0.90;99.90;;;;;;5031931;28;20988;-71
2022/01/30 05:29:30;;;;;;;15.63;9.33;;;0.70;99.90;;;;;;5031985;28;20505;-71
2022/01/30 05:31:58;;;;;;;13.80;8.50;;;0.70;99.90;;;;;;5031837;28;20452;-74
2022/01/30 05:34:26;;;;;;;16.40;8.60;;;0.80;99.90;;;;;;5031360;28;20534;-70
2022/01/30 05:36:54;;;;;;;19.03;9.20;;;1.00;99.90;;;;;;5031854;28;20858;-71
2022/01/30 05:39:21;;;;;;;12.60;7.77;;;0.90;99.90;;;;;;5031366;28;20541;-71
2022/01/30 05:41:49;;;;;;;13.43;8.70;;;1.00;99.90;;;;;;5031385;28;20820;-70
2022/01/30 05:44:21;;;;;;;11.27;7.30;;;0.90;99.90;;;;;;5031487;28;20472;-70
2022/01/30 05:46:54;;;;;;;15.43;10.13;;;0.90;99.90;;;;;;5031469;28;20542;-70
2022/01/30 05:49:23;;;;;;;15.87;9.47;;;0.90;99.90;;;;;;5031265;28;20487;-71
2022/01/30 05:51:50;;;;;;;15.83;8.90;;;0.80;99.90;;;;;;5031454;28;20459;-70
2022/01/30 05:54:17;;;;;;;15.83;9.70;;;0.80;99.90;;;;;;5031341;28;20919;-71
2022/01/30 05:56:44;;;;;;;15.20;9.40;;;1.00;99.90;;;;;;5031426;28;20508;-71
2022/01/30 05:59:11;;;;;;;12.10;8.10;;;1.00;99.90;;;;;;5030634;28;21013;-71
2022/01/30 06:01:39;;;;;;;14.17;9.40;;;1.10;99.90;;;;;;5030844;28;20464;-70
2022/01/30 06:04:06;;;;;;;12.90;8.70;;;0.90;99.90;;;;;;5031125;28;20471;-71
2022/01/30 06:06:33;;;;;;;15.37;9.17;;;0.90;99.90;;;;;;5031227;28;20464;-70
2022/01/30 06:09:12;;;;;;;12.80;8.57;;;0.60;99.90;;;;;;5031149;28;20447;-72
2022/01/30 06:11:39;;;;;;;14.03;8.97;;;0.60;99.90;;;;;;5031084;28;20517;-76
2022/01/30 06:14:06;;;;;;;11.47;7.50;;;0.50;99.90;;;;;;5030660;28;20566;-73
2022/01/30 06:16:33;;;;;;;19.60;10.70;;;0.50;99.90;;;;;;5030745;28;20790;-74
2022/01/30 06:19:02;;;;;;;20.20;10.67;;;0.40;99.90;;;;;;5030740;28;20491;-74
2022/01/30 06:21:29;;;;;;;15.13;9.07;;;0.40;99.90;;;;;;5031039;28;20486;-69
2022/01/30 06:23:56;;;;;;;15.63;9.67;;;0.40;99.90;;;;;;5030310;28;20887;-70
2022/01/30 06:26:24;;;;;;;16.40;8.73;;;0.50;99.90;;;;;;5030529;28;20504;-73
2022/01/30 06:28:51;;;;;;;11.57;8.73;;;0.40;99.90;;;;;;5030618;28;20451;-71
2022/01/30 06:31:18;;;;;;;13.97;8.00;;;0.50;99.90;;;;;;5030538;28;20976;-69
2022/01/30 06:33:45;;;;;;;16.40;8.50;;;0.60;99.90;;;;;;5030416;28;20965;-75
2022/01/30 06:36:13;;;;;;;14.97;8.77;;;0.70;99.90;;;;;;5030845;28;20520;-75
2022/01/30 06:38:40;;;;;;;19.03;10.10;;;0.80;99.90;;;;;;5030507;28;20552;-71
2022/01/30 06:41:07;;;;;;;12.90;8.33;;;0.80;99.90;;;;;;5030237;28;20864;-76
2022/01/30 06:43:35;;;;;;;19.90;9.60;;;0.80;99.90;;;;;;5030041;28;20486;-73
2022/01/30 06:46:03;;;;;;;19.13;10.40;;;0.90;99.90;;;;;;5030472;28;20458;-71
2022/01/30 06:48:30;;;;;;;14.20;9.27;;;1.20;99.90;;;;;;5030409;28;20888;-71
2022/01/30 06:50:57;;;;;;;15.30;8.87;;;1.30;99.90;;;;;;5030295;28;20553;-72
2022/01/30 06:53:25;;;;;;;16.10;8.47;;;1.50;99.90;;;;;;5030372;28;20487;-71
2022/01/30 06:55:52;;;;;;;17.57;8.83;;;1.60;99.90;;;;;;5030202;28;20450;-71
2022/01/30 06:58:19;;;;;;;12.83;8.60;;;1.70;99.90;;;;;;5030038;28;20510;-66
2022/01/30 07:00:47;;;;;;;14.17;8.60;;;1.70;99.90;;;;;;5030131;28;20926;-72
2022/01/30 07:03:14;;;;;;;16.40;10.30;;;1.70;99.90;;;;;;5029692;28;20515;-72
2022/01/30 07:05:41;;;;;;;11.70;7.93;;;1.70;99.90;;;;;;5029573;28;21016;-69
2022/01/30 07:08:08;;;;;;;16.37;10.07;;;1.40;99.90;;;;;;5029894;28;20509;-70
2022/01/30 07:10:37;;;;;;;20.43;10.07;;;1.40;99.90;;;;;;5030156;28;20817;-73
2022/01/30 07:13:04;;;;;;;17.50;9.13;;;1.50;99.90;;;;;;5029983;28;20455;-71
2022/01/30 07:15:31;;;;;;;13.80;8.63;;;1.60;99.90;;;;;;5029889;28;20529;-73
2022/01/30 07:17:58;;;;;;;18.73;9.00;;;1.70;99.90;;;;;;5029266;28;20490;-74
2022/01/30 07:20:25;;;;;;;18.03;9.20;;;1.80;99.90;;;;;;5029911;28;20454;-70
2022/01/30 07:22:53;;;;;;;15.67;9.60;;;2.00;99.90;;;;;;5029616;28;20454;-75
2022/01/30 07:25:20;;;;;;;14.97;9.40;;;2.00;99.90;;;;;;5029566;28;20481;-74
2022/01/30 07:27:48;;;;;;;16.03;10.70;;;1.70;99.90;;;;;;5029873;28;20460;-74
2022/01/30 07:30:15;;;;;;;14.20;9.83;;;1.80;99.90;;;;;;5029377;28;20464;-74
2022/01/30 07:32:42;;;;;;;18.53;10.13;;;2.00;99.90;;;;;;5029813;28;20458;-72
2022/01/30 07:35:10;;;;;;;17.50;10.20;;;2.10;99.90;;;;;;5029211;28;21009;-73
2022/01/30 07:37:37;;;;;;;15.60;11.43;;;2.50;99.90;;;;;;5029612;28;20477;-71
2022/01/30 07:40:05;;;;;;;17.60;10.27;;;2.40;99.90;;;;;;5029637;28;20587;-71
2022/01/30 07:42:34;;;;;;;15.60;11.27;;;2.50;99.90;;;;;;5029507;28;20462;-74
2022/01/30 07:45:04;;;;;;;16.77;10.13;;;2.60;99.90;;;;;;5029506;28;20942;-77
2022/01/30 07:47:31;;;;;;;18.90;10.53;;;2.60;99.90;;;;;;5029707;28;20491;-74
2022/01/30 07:49:59;;;;;;;19.37;10.57;;;2.70;99.90;;;;;;5029377;28;20461;-70
2022/01/30 07:52:26;;;;;;;14.40;9.70;;;2.70;99.90;;;;;;5029602;28;21228;-72
2022/01/30 07:54:53;;;;;;;18.00;9.03;;;2.80;99.90;;;;;;5029380;28;20805;-73
2022/01/30 07:57:20;;;;;;;16.27;9.00;;;2.90;99.90;;;;;;5029566;28;20464;-69
2022/01/30 07:59:47;;;;;;;17.37;11.57;;;3.10;99.90;;;;;;5029559;28;20502;-69
2022/01/30 08:02:15;;;;;;;16.10;10.33;;;3.00;99.90;;;;;;5029641;28;20457;-70
2022/01/30 08:04:42;;;;;;;14.87;10.40;;;2.70;99.90;;;;;;5029345;28;20516;-72
2022/01/30 08:07:09;;;;;;;16.33;11.40;;;2.50;99.90;;;;;;5029153;28;20478;-72
2022/01/30 08:09:36;;;;;;;17.37;10.20;;;2.50;99.90;;;;;;5029477;28;20446;-72
2022/01/30 08:12:04;;;;;;;20.00;10.30;;;2.50;99.90;;;;;;5029355;28;20939;-75
2022/01/30 08:14:31;;;;;;;23.70;13.33;;;2.60;99.90;;;;;;5029435;28;20454;-74
2022/01/30 08:16:58;;;;;;;15.80;10.67;;;2.60;99.90;;;;;;5029049;28;20493;-73
2022/01/30 08:19:27;;;;;;;20.87;11.87;;;2.70;99.90;;;;;;5029250;28;20516;-73
2022/01/30 08:21:56;;;;;;;18.37;10.67;;;2.90;99.90;;;;;;5029138;28;20458;-72
2022/01/30 08:24:24;;;;;;;19.30;10.80;;;3.00;99.90;;;;;;5029193;28;20500;-68
2022/01/30 08:26:51;;;;;;;16.40;10.37;;;3.10;99.90;;;;;;5029184;28;21027;-74
2022/01/30 08:29:18;;;;;;;16.70;10.73;;;3.30;99.90;;;;;;5031518;28;20461;-72
2022/01/30 08:31:45;;;;;;;17.77;11.33;;;3.50;99.90;;;;;;5032838;28;20481;-75
2022/01/30 08:34:12;;;;;;;17.90;9.90;;;3.60;99.90;;;;;;5032951;28;20778;-75
2022/01/30 08:36:41;;;;;;;23.07;11.83;;;4.00;99.90;;;;;;5032709;28;20990;-76
2022/01/30 08:39:08;;;;;;;17.80;12.00;;;4.30;99.90;;;;;;5032906;28;20491;-75
2022/01/30 08:41:35;;;;;;;19.50;12.20;;;4.70;99.90;;;;;;5032791;28;20526;-74
2022/01/30 08:44:02;;;;;;;20.87;11.73;;;4.80;99.50;;;;;;5032831;28;20519;-73
2022/01/30 08:46:29;;;;;;;27.73;12.13;;;5.00;99.30;;;;;;5032567;28;20531;-72
2022/01/30 08:48:56;;;;;;;17.63;11.40;;;5.20;98.80;;;;;;5032437;28;20527;-73
2022/01/30 08:51:23;;;;;;;19.50;12.33;;;5.40;98.20;;;;;;5032190;28;20951;-73
2022/01/30 08:53:52;;;;;;;21.13;12.30;;;5.60;97.30;;;;;;5032679;28;20457;-74
2022/01/30 08:56:21;;;;;;;20.00;12.33;;;6.00;98.00;;;;;;5032463;28;20520;-72
2022/01/30 08:58:49;;;;;;;18.37;11.53;;;6.30;96.20;;;;;;5032181;28;20986;-73
2022/01/30 09:01:16;;;;;;;16.60;11.60;;;6.60;95.60;;;;;;5032370;28;21022;-72
2022/01/30 09:03:44;;;;;;;19.27;10.97;;;6.70;93.80;;;;;;5032377;28;20521;-73
2022/01/30 09:06:11;;;;;;;18.90;11.83;;;6.60;93.20;;;;;;5032420;28;20931;-73
2022/01/30 09:08:38;;;;;;;25.87;13.50;;;6.40;92.90;;;;;;5032223;28;20518;-74
2022/01/30 09:11:08;;;;;;;19.00;13.40;;;6.30;92.90;;;;;;5031836;28;20513;-74
2022/01/30 09:13:35;;;;;;;20.93;13.20;;;6.30;93.10;;;;;;5032250;28;20451;-73
2022/01/30 09:16:03;;;;;;;19.10;12.40;;;6.40;92.90;;;;;;5031982;28;20999;-71
2022/01/30 09:18:30;;;;;;;19.23;13.43;;;6.50;93.50;;;;;;5031742;28;20503;-71
2022/01/30 09:20:58;;;;;;;30.20;14.03;;;6.80;93.20;;;;;;5031886;28;20463;-69
2022/01/30 09:23:25;;;;;;;19.00;13.03;;;7.00;93.80;;;;;;5032036;28;20463;-71
2022/01/30 09:25:52;;;;;;;17.20;11.00;;;7.00;92.00;;;;;;5031592;28;20470;-68
2022/01/30 09:28:21;;;;;;;16.73;10.63;;;6.90;92.00;;;;;;5031725;28;20483;-69
2022/01/30 09:30:48;;;;;;;17.97;10.83;;;7.10;91.50;;;;;;5032047;28;20519;-68
2022/01/30 09:33:15;;;;;;;13.63;8.93;;;7.10;91.60;;;;;;5031856;28;20451;-68
2022/01/30 09:35:43;;;;;;;18.77;10.97;;;7.30;90.60;;;;;;5030255;28;20452;-68
2022/01/30 09:38:10;;;;;;;17.50;10.80;;;7.40;90.80;;;;;;5031580;28;20481;-68
2022/01/30 09:40:37;;;;;;;21.70;12.50;;;7.60;90.40;;;;;;5031215;28;20488;-68
2022/01/30 09:43:04;;;;;;;14.87;11.43;;;7.80;90.30;;;;;;5031433;28;20524;-68
2022/01/30 09:45:33;;;;;;;12.43;9.47;;;8.00;89.00;;;;;;5031656;28;20819;-75
2022/01/30 09:48:01;;;;;;;21.53;10.90;;;8.20;88.70;;;;;;5031488;28;20481;-74
2022/01/30 09:50:29;;;;;;;18.57;10.47;;;8.10;85.00;;;;;;5031736;28;20844;-74
2022/01/30 09:52:56;;;;;;;16.80;10.90;;;7.40;84.30;;;;;;5031133;28;20460;-72
2022/01/30 09:55:23;;;;;;;17.87;10.30;;;6.90;85.80;;;;;;5031271;28;20940;-70
2022/01/30 09:57:52;;;;;;;20.77;10.20;;;7.00;86.70;;;;;;5031215;28;20533;-65
2022/01/30 10:00:19;;;;;;;21.70;10.63;;;7.10;86.40;;;;;;5031261;28;20496;-63
2022/01/30 10:02:47;;;;;;;14.97;9.97;;;7.40;87.00;;;;;;5031367;28;20505;-67
2022/01/30 10:05:16;;;;;;;18.07;9.90;;;7.70;86.00;;;;;;5031417;28;20499;-68
2022/01/30 10:07:46;;;;;;;15.33;9.60;;;8.10;85.40;;;;;;5030959;28;20966;-67
2022/01/30 10:10:17;;;;;;;15.10;9.70;;;8.40;82.50;;;;;;5031061;28;20950;-68
2022/01/30 10:13:04;;;;;;;14.07;9.10;;;8.80;80.30;;;;;;5031137;28;20461;-68
2022/01/30 10:15:48;;;;;;;24.43;10.30;;;9.20;79.80;;;;;;5031117;28;20462;-65
2022/01/30 10:18:16;;;;;;;17.83;10.57;;;9.40;77.40;;;;;;5030715;28;20493;-67
2022/01/30 10:20:43;;;;;;;14.33;9.30;;;9.70;76.50;;;;;;5030897;28;20492;-66
2022/01/30 10:23:11;;;;;;;14.00;8.67;;;9.80;75.80;;;;;;5030468;28;20470;-64
2022/01/30 10:25:40;;;;;;;14.67;9.20;;;9.90;75.20;;;;;;5031016;28;20451;-67
2022/01/30 10:28:10;;;;;;;18.37;11.57;;;10.20;72.80;;;;;;5030195;28;20536;-66
2022/01/30 10:30:42;;;;;;;19.13;10.63;;;10.70;74.60;;;;;;5030346;28;20501;-64
2022/01/30 10:33:12;;;;;;;17.90;10.63;;;11.10;72.10;;;;;;5030618;28;20582;-65
2022/01/30 10:35:58;;;;;;;17.67;10.70;;;11.20;70.90;;;;;;5030726;28;20524;-66
2022/01/30 10:38:27;;;;;;;20.27;10.73;;;11.50;68.80;;;;;;5030653;28;20481;-65
2022/01/30 10:40:59;;;;;;;18.77;10.47;;;11.50;68.40;;;;;;5030464;28;20812;-64
2022/01/30 10:43:52;;;;;;;17.93;10.20;;;11.40;66.60;;;;;;5030596;28;20446;-66
2022/01/30 10:46:21;;;;;;;17.77;11.93;;;11.60;65.20;;;;;;5030480;28;20508;-66
2022/01/30 10:48:53;;;;;;;18.93;11.43;;;11.20;64.90;;;;;;5030546;28;20863;-67
2022/01/30 10:51:22;;;;;;;20.63;12.10;;;10.90;64.30;;;;;;5029680;28;20439;-67
2022/01/30 10:53:51;;;;;;;18.80;10.40;;;10.70;66.40;;;;;;5030453;28;20453;-66
2022/01/30 10:56:24;;;;;;;21.03;11.57;;;10.90;66.20;;;;;;5030103;28;20908;-68
2022/01/30 10:59:22;;;;;;;17.90;10.93;;;10.90;64.10;;;;;;5030239;28;20450;-65
2022/01/30 11:01:51;;;;;;;21.87;10.53;;;10.90;62.50;;;;;;4988069;28;20452;-67
2022/01/30 11:04:23;;;;;;;18.13;11.00;;;11.00;65.60;;;;;;5020809;28;20447;-68
2022/01/30 11:06:51;;;;;;;15.93;10.67;;;11.50;64.80;;;;;;5029915;28;20474;-68
2022/01/30 11:09:23;;;;;;;21.00;10.87;;;11.80;62.20;;;;;;5030072;28;20501;-66
2022/01/30 11:11:55;;;;;;;17.70;10.60;;;12.10;63.10;;;;;;5029712;28;20530;-65
2022/01/30 11:14:24;;;;;;;20.87;11.50;;;12.50;60.50;;;;;;5029724;28;21018;-67
2022/01/30 11:17:02;;;;;;;21.47;11.93;;;12.90;61.80;;;;;;5029669;28;20497;-68
2022/01/30 11:19:30;;;;;;;19.43;12.87;;;13.20;61.20;;;;;;5030038;28;20490;-67
2022/01/30 11:22:05;;;;;;;20.70;12.60;;;13.50;60.40;;;;;;5029952;28;20478;-68
2022/01/30 11:24:35;;;;;;;17.37;12.07;;;13.90;58.20;;;;;;5029991;28;20464;-66
2022/01/30 11:27:04;;;;;;;18.97;12.40;;;14.30;57.40;;;;;;5029536;28;21018;-66
2022/01/30 11:29:35;;;;;;;21.27;12.23;;;14.50;56.40;;;;;;5029737;28;20522;-67
2022/01/30 11:32:05;;;;;;;18.73;12.23;;;14.70;55.00;;;;;;5029984;28;20458;-68
2022/01/30 11:34:33;;;;;;;24.00;13.30;;;14.80;53.80;;;;;;5029755;28;20578;-67
2022/01/30 11:37:02;;;;;;;15.70;11.93;;;14.80;54.00;;;;;;5029904;28;20474;-67
2022/01/30 11:39:30;;;;;;;23.20;11.20;;;14.60;53.30;;;;;;5029461;28;20927;-67
2022/01/30 11:42:17;;;;;;;16.93;10.83;;;14.10;52.80;;;;;;5029808;28;20501;-70
2022/01/30 11:44:46;;;;;;;16.87;12.20;;;13.90;53.90;;;;;;5029906;28;20459;-68
2022/01/30 11:47:24;;;;;;;18.67;12.17;;;14.10;53.40;;;;;;5029496;28;20555;-73
2022/01/30 11:50:08;;;;;;;18.97;12.90;;;14.00;53.50;;;;;;5029412;28;20943;-67
2022/01/30 11:52:58;;;;;;;18.87;13.67;;;13.80;53.30;;;;;;5029248;28;20862;-75
2022/01/30 11:55:49;;;;;;;21.70;13.27;;;13.40;53.30;;;;;;5029653;28;20451;-76
2022/01/30 11:58:38;;;;;;;27.70;12.90;;;13.10;53.50;;;;;;5029097;28;20842;-72
2022/01/30 12:01:06;;;;;;;18.17;12.47;;;13.10;54.60;;;;;;5029492;28;20494;-75
2022/01/30 12:03:36;;;;;;;26.23;14.93;;;13.10;53.30;;;;;;5032323;28;20951;-73
2022/01/30 12:06:29;;;;;;;22.93;13.07;;;12.90;53.70;;;;;;5033473;28;20546;-78
2022/01/30 12:08:59;;;;;;;18.13;11.43;;;13.30;54.10;;;;;;5033497;28;20454;-79
2022/01/30 12:11:52;;;;;;;23.10;13.50;;;13.80;54.00;;;;;;5033409;28;20481;-73
2022/01/30 12:14:48;;;;;;;15.30;12.30;;;14.10;54.00;;;;;;5033531;28;20459;-75
2022/01/30 12:17:15;;;;;;;26.73;13.20;;;14.40;51.60;;;;;;5032907;28;20617;-78
2022/01/30 12:20:02;;;;;;;21.43;13.47;;;14.40;50.80;;;;;;5033120;28;20493;-75
2022/01/30 12:22:41;;;;;;;17.83;12.60;;;13.80;50.70;;;;;;5032912;28;20493;-75
2022/01/30 12:25:31;;;;;;;20.27;13.30;;;13.70;51.10;;;;;;5032804;28;20450;-75
2022/01/30 12:28:06;;;;;;;24.40;13.07;;;13.30;50.60;;;;;;5030025;28;20485;-74
2022/01/30 12:30:36;;;;;;;21.67;13.30;;;13.00;51.40;;;;;;5033130;28;20449;-77
2022/01/30 12:33:19;;;;;;;24.03;13.40;;;12.80;51.90;;;;;;5032988;28;20450;-73
2022/01/30 12:35:46;;;;;;;26.13;12.53;;;12.60;52.50;;;;;;5032403;28;20500;-79
2022/01/30 12:38:13;;;;;;;18.33;12.53;;;12.20;52.70;;;;;;5032574;28;20478;-74
2022/01/30 12:40:46;;;;;;;20.40;12.10;;;11.60;53.70;;;;;;5033273;28;20487;-76
2022/01/30 12:43:13;;;;;;;18.67;13.17;;;11.20;54.70;;;;;;5035855;28;20457;-72
2022/01/30 12:45:40;;;;;;;27.10;13.17;;;10.70;55.30;;;;;;5033137;28;20453;-75
2022/01/30 12:48:09;;;;;;;24.20;12.53;;;10.20;56.10;;;;;;5032603;28;20479;-80
2022/01/30 12:50:38;;;;;;;25.60;12.93;;;9.80;57.60;;;;;;5032600;28;20443;-80
2022/01/30 12:53:07;;;;;;;22.67;13.30;;;9.50;58.50;;;;;;5032681;28;20454;-77
2022/01/30 12:55:34;;;;;;;24.23;14.67;;;9.40;58.60;;;;;;5032380;28;20564;-79
2022/01/30 12:58:04;;;;;;;23.13;14.00;;;9.30;59.00;;;;;;5032847;28;20548;-76
2022/01/30 13:00:31;;;;;;;24.23;13.63;;;9.20;59.50;;;;;;5034315;28;20502;-78
2022/01/30 13:03:00;;;;;;;22.97;12.87;;;9.20;60.10;;;;;;5034684;28;20454;-73
2022/01/30 13:05:29;;;;;;;22.20;13.40;;;9.20;59.70;;;;;;5035588;28;20450;-75
2022/01/30 13:07:57;;;;;;;22.37;13.10;;;9.10;59.90;;;;;;5033071;28;20472;-75
2022/01/30 13:10:26;;;;;;;20.23;13.10;;;8.90;61.00;;;;;;5032446;28;20450;-74
2022/01/30 13:12:55;;;;;;;19.93;12.57;;;8.80;60.90;;;;;;5032465;28;20935;-76
2022/01/30 13:15:24;;;;;;;18.63;12.47;;;8.80;61.20;;;;;;5031841;28;20465;-80
2022/01/30 13:17:52;;;;;;;25.73;13.30;;;8.70;61.80;;;;;;5032282;28;20482;-75
2022/01/30 13:20:22;;;;;;;24.93;13.10;;;8.70;62.50;;;;;;5032411;28;20498;-77
2022/01/30 13:22:52;;;;;;;17.80;12.17;;;8.80;62.90;;;;;;5031885;28;20482;-76
2022/01/30 13:25:21;;;;;;;27.30;11.90;;;8.90;64.20;;;;;;5032205;28;20524;-76
2022/01/30 13:27:49;;;;;;;25.17;13.10;;;8.90;64.90;;;;;;5032150;28;20902;-77